createdAt,value
2018-04-28T00:00:08.439Z,18.34
2018-04-28T00:02:36.824Z,18.30
2018-04-28T00:05:05.205Z,18.27
2018-04-28T00:07:33.133Z,18.25
2018-04-28T00:10:01.274Z,18.21
2018-04-28T00:12:29.646Z,18.15
2018-04-28T00:14:57.787Z,18.13
2018-04-28T00:17:25.687Z,18.06
2018-04-28T00:19:56.438Z,17.98
2018-04-28T00:22:27.156Z,17.95
2018-04-28T00:24:59.480Z,17.95
2018-04-28T00:27:34.748Z,17.90
2018-04-28T00:30:12.190Z,17.83
2018-04-28T00:32:40.330Z,17.82
2018-04-28T00:35:09.175Z,17.82
2018-04-28T00:37:54.075Z,17.75
2018-04-28T00:40:45.057Z,17.75
2018-04-28T00:43:19.558Z,17.72
2018-04-28T00:48:47.521Z,17.69
2018-04-28T00:51:25.325Z,17.67
2018-04-28T00:54:17.783Z,17.67
2018-04-28T00:56:52.173Z,17.64
2018-04-28T00:59:23.416Z,17.61
2018-04-28T01:01:53.056Z,17.59
2018-04-28T01:04:26.913Z,17.60
2018-04-28T01:06:55.334Z,17.59
2018-04-28T01:09:23.946Z,17.58
2018-04-28T01:11:51.850Z,17.60
2018-04-28T01:14:20.419Z,17.60
2018-04-28T01:16:52.819Z,17.56
2018-04-28T01:19:26.425Z,17.46
2018-04-28T01:21:54.368Z,17.44
2018-04-28T01:24:33.097Z,17.41
2018-04-28T01:27:07.543Z,17.37
2018-04-28T01:29:36.235Z,17.35
2018-04-28T01:32:12.750Z,17.34
2018-04-28T01:38:00.776Z,17.19
2018-04-28T01:40:28.750Z,17.20
2018-04-28T01:43:03.269Z,17.16
2018-04-28T01:45:42.875Z,17.15
2018-04-28T01:51:11.810Z,17.08
2018-04-28T01:57:09.916Z,17.00
2018-04-28T02:03:06.623Z,16.95
2018-04-28T02:05:41.222Z,16.94
2018-04-28T02:08:24.845Z,16.93
2018-04-28T02:10:58.375Z,16.91
2018-04-28T02:13:34.959Z,16.89
2018-04-28T02:16:02.863Z,16.83
2018-04-28T02:18:35.478Z,16.78
2018-04-28T02:24:38.380Z,16.65
2018-04-28T02:27:15.504Z,16.68
2018-04-28T02:32:57.439Z,16.76
2018-04-28T02:35:32.935Z,16.73
2018-04-28T02:38:04.842Z,16.66
2018-04-28T02:40:40.916Z,16.64
2018-04-28T02:43:09.611Z,16.60
2018-04-28T02:48:58.629Z,16.61
2018-04-28T02:51:35.085Z,16.56
2018-04-28T02:57:17.760Z,16.55
2018-04-28T02:59:47.493Z,16.51
2018-04-28T03:05:25.988Z,16.42
2018-04-28T03:08:02.547Z,16.45
2018-04-28T03:13:33.550Z,16.45
2018-04-28T03:16:02.102Z,16.43
2018-04-28T03:18:31.733Z,16.51
2018-04-28T03:20:59.679Z,16.46
2018-04-28T03:23:31.245Z,16.49
2018-04-28T03:25:59.994Z,16.44
2018-04-28T03:28:30.730Z,16.38
2018-04-28T03:30:59.398Z,16.35
2018-04-28T03:36:28.228Z,16.37
2018-04-28T03:39:02.074Z,16.38
2018-04-28T03:41:31.535Z,16.39
2018-04-28T03:47:38.408Z,16.34
2018-04-28T03:50:38.796Z,16.34
2018-04-28T03:53:07.479Z,16.43
2018-04-28T03:55:37.036Z,16.48
2018-04-28T03:58:16.681Z,16.45
2018-04-28T04:00:56.296Z,16.47
2018-04-28T04:03:24.898Z,16.54
2018-04-28T04:08:57.707Z,16.57
2018-04-28T04:11:37.351Z,16.58
2018-04-28T04:17:23.856Z,16.46
2018-04-28T04:23:15.179Z,16.62
2018-04-28T04:28:47.803Z,16.67
2018-04-28T04:31:26.308Z,16.64
2018-04-28T04:34:04.071Z,16.69
2018-04-28T04:36:35.649Z,16.96
2018-04-28T04:39:10.073Z,17.07
2018-04-28T04:44:50.059Z,17.30
2018-04-28T04:50:29.210Z,17.34
2018-04-28T04:53:14.158Z,17.27
2018-04-28T04:55:48.831Z,17.52
2018-04-28T04:58:23.269Z,17.67
2018-04-28T05:04:17.211Z,18.62
2018-04-28T05:07:07.461Z,19.01
2018-04-28T05:12:36.184Z,19.70
2018-04-28T05:15:10.831Z,19.91
2018-04-28T05:17:40.304Z,19.09
2018-04-28T05:20:19.929Z,18.73
2018-04-28T05:23:10.511Z,18.55
2018-04-28T05:28:58.930Z,18.08
2018-04-28T05:34:36.038Z,18.27
2018-04-28T05:37:15.522Z,18.45
2018-04-28T05:46:23.509Z,18.53
2018-04-28T05:52:07.959Z,18.49
2018-04-28T05:54:50.717Z,18.60
2018-04-28T05:57:31.342Z,18.64
2018-04-28T06:00:13.158Z,18.71
2018-04-28T06:02:50.865Z,18.48
2018-04-28T06:05:26.623Z,18.67
2018-04-28T06:14:49.989Z,18.68
2018-04-28T06:17:23.359Z,18.91
2018-04-28T06:20:05.890Z,18.94
2018-04-28T06:22:34.407Z,18.66
2018-04-28T06:25:02.792Z,18.55
2018-04-28T06:27:31.290Z,18.64
2018-04-28T06:29:59.985Z,18.81
2018-04-28T06:32:28.437Z,18.90
2018-04-28T06:34:56.817Z,18.87
2018-04-28T06:37:25.190Z,18.95
2018-04-28T06:39:53.336Z,18.93
2018-04-28T06:42:21.748Z,19.10
2018-04-28T06:44:50.167Z,19.15
2018-04-28T06:47:18.553Z,19.19
2018-04-28T06:49:47.052Z,19.14
2018-04-28T06:52:15.440Z,19.16
2018-04-28T06:54:43.819Z,19.18
2018-04-28T06:57:12.195Z,19.29
2018-04-28T06:59:40.576Z,19.23
2018-04-28T07:02:09.522Z,19.08
2018-04-28T07:04:37.926Z,19.20
2018-04-28T07:07:06.002Z,19.21
2018-04-28T07:09:34.397Z,19.12
2018-04-28T07:12:02.779Z,19.20
2018-04-28T07:14:31.152Z,19.29
2018-04-28T07:16:59.358Z,19.57
2018-04-28T07:19:27.255Z,19.74
2018-04-28T07:21:55.646Z,19.64
2018-04-28T07:24:24.032Z,19.54
2018-04-28T07:26:54.428Z,19.80
2018-04-28T07:29:22.850Z,19.95
2018-04-28T07:31:51.240Z,19.85
2018-04-28T07:34:19.721Z,19.66
2018-04-28T07:36:48.103Z,19.57
2018-04-28T07:39:16.479Z,19.72
2018-04-28T07:41:44.954Z,19.91
2018-04-28T07:44:14.707Z,19.98
2018-04-28T07:46:43.107Z,20.14
2018-04-28T07:49:11.482Z,20.10
2018-04-28T07:51:39.874Z,20.20
2018-04-28T07:54:08.389Z,20.32
2018-04-28T07:56:36.991Z,20.27
2018-04-28T07:59:05.370Z,20.11
2018-04-28T08:01:33.770Z,19.94
2018-04-28T08:04:02.181Z,20.09
2018-04-28T08:06:30.566Z,20.21
2018-04-28T08:08:58.703Z,20.21
2018-04-28T08:11:27.119Z,20.20
2018-04-28T08:13:55.498Z,20.18
2018-04-28T08:16:23.915Z,20.27
2018-04-28T08:18:52.295Z,20.24
2018-04-28T08:21:20.671Z,20.33
2018-04-28T08:23:49.085Z,20.28
2018-04-28T08:26:17.006Z,20.39
2018-04-28T08:28:45.492Z,20.31
2018-04-28T08:31:16.692Z,20.24
2018-04-28T08:33:45.678Z,20.25
2018-04-28T08:36:13.821Z,20.31
2018-04-28T08:38:42.452Z,20.46
2018-04-28T08:41:18.062Z,20.68
2018-04-28T08:43:46.479Z,20.77
2018-04-28T08:46:14.855Z,20.76
2018-04-28T08:48:43.026Z,20.70
2018-04-28T08:51:11.408Z,20.73
2018-04-28T08:53:39.794Z,20.81
2018-04-28T08:56:08.189Z,20.67
2018-04-28T08:58:36.575Z,20.60
2018-04-28T09:01:04.476Z,20.64
2018-04-28T09:03:32.909Z,20.63
2018-04-28T09:06:01.279Z,20.74
2018-04-28T09:08:29.827Z,20.53
2018-04-28T09:10:58.326Z,20.54
2018-04-28T09:13:26.717Z,20.69
2018-04-28T09:15:55.098Z,20.87
2018-04-28T09:18:23.479Z,20.86
2018-04-28T09:20:51.904Z,20.89
2018-04-28T09:23:20.274Z,21.19
2018-04-28T09:25:48.699Z,21.32
2018-04-28T09:28:17.071Z,21.46
2018-04-28T09:30:45.496Z,21.59
2018-04-28T09:33:13.679Z,21.57
2018-04-28T09:35:42.048Z,21.64
2018-04-28T09:38:10.428Z,21.43
2018-04-28T09:40:38.815Z,21.31
2018-04-28T09:43:07.191Z,21.19
2018-04-28T09:45:35.613Z,21.21
2018-04-28T09:48:03.996Z,21.30
2018-04-28T09:50:32.427Z,21.24
2018-04-28T09:53:00.853Z,21.33
2018-04-28T09:55:29.232Z,21.41
2018-04-28T09:58:05.912Z,21.55
2018-04-28T10:03:45.546Z,21.65
2018-04-28T10:06:13.947Z,21.48
2018-04-28T10:08:42.407Z,21.59
2018-04-28T10:11:10.801Z,21.61
2018-04-28T10:13:39.169Z,21.70
2018-04-28T10:16:07.556Z,21.93
2018-04-28T10:18:35.931Z,22.06
2018-04-28T10:21:04.680Z,22.14
2018-04-28T10:23:33.079Z,22.09
2018-04-28T10:26:01.518Z,22.28
2018-04-28T10:28:30.012Z,22.46
2018-04-28T10:30:58.550Z,22.31
2018-04-28T10:33:27.053Z,22.34
2018-04-28T10:35:55.897Z,22.21
2018-04-28T10:38:24.310Z,22.26
2018-04-28T10:40:52.696Z,22.33
2018-04-28T10:43:21.067Z,22.43
2018-04-28T10:45:49.470Z,22.52
2018-04-28T10:48:17.866Z,22.60
2018-04-28T10:50:47.142Z,22.52
2018-04-28T10:53:15.559Z,22.50
2018-04-28T10:55:43.940Z,22.66
2018-04-28T10:58:12.366Z,22.77
2018-04-28T11:00:40.915Z,22.77
2018-04-28T11:03:09.282Z,22.76
2018-04-28T11:05:37.661Z,22.86
2018-04-28T11:08:06.271Z,22.97
2018-04-28T11:10:34.682Z,22.94
2018-04-28T11:13:03.069Z,23.02
2018-04-28T11:15:31.508Z,23.10
2018-04-28T11:17:59.923Z,23.18
2018-04-28T11:20:28.314Z,23.29
2018-04-28T11:22:56.731Z,23.44
2018-04-28T11:25:25.246Z,23.57
2018-04-28T11:27:53.414Z,23.65
2018-04-28T11:30:21.825Z,23.62
2018-04-28T11:32:50.261Z,23.60
2018-04-28T11:35:18.813Z,23.60
2018-04-28T11:37:47.253Z,23.64
2018-04-28T11:40:15.465Z,23.50
2018-04-28T11:42:44.556Z,23.49
2018-04-28T11:45:12.947Z,23.58
2018-04-28T11:47:54.803Z,23.68
2018-04-28T11:50:23.225Z,23.74
2018-04-28T11:52:51.631Z,23.72
2018-04-28T11:55:20.016Z,23.86
2018-04-28T11:57:48.391Z,23.87
2018-04-28T12:00:16.770Z,23.90
2018-04-28T12:02:45.198Z,23.92
2018-04-28T12:05:13.672Z,23.93
2018-04-28T12:07:42.168Z,23.81
2018-04-28T12:10:10.564Z,23.94
2018-04-28T12:12:39.123Z,23.98
2018-04-28T12:15:07.630Z,24.00
2018-04-28T12:17:36.007Z,24.14
2018-04-28T12:20:04.139Z,24.16
2018-04-28T12:22:32.553Z,24.24
2018-04-28T12:25:00.967Z,24.34
2018-04-28T12:27:29.363Z,24.34
2018-04-28T12:29:57.752Z,24.39
2018-04-28T12:32:26.298Z,24.37
2018-04-28T12:34:54.699Z,24.55
2018-04-28T12:37:25.671Z,24.65
2018-04-28T12:39:54.088Z,24.72
2018-04-28T12:42:22.463Z,24.78
2018-04-28T12:44:51.708Z,24.87
2018-04-28T12:47:20.099Z,25.02
2018-04-28T12:49:48.471Z,25.06
2018-04-28T12:52:16.875Z,25.07
2018-04-28T12:54:45.270Z,25.03
2018-04-28T12:57:13.650Z,25.02
2018-04-28T12:59:42.083Z,25.02
2018-04-28T13:02:10.528Z,25.02
2018-04-28T13:04:38.955Z,24.96
2018-04-28T13:07:07.488Z,24.95
2018-04-28T13:09:35.634Z,24.97
2018-04-28T13:12:04.019Z,25.02
2018-04-28T13:14:33.131Z,25.16
2018-04-28T13:17:01.507Z,25.15
2018-04-28T13:19:29.939Z,25.13
2018-04-28T13:21:58.336Z,25.15
2018-04-28T13:24:26.729Z,25.14
2018-04-28T13:26:55.177Z,25.26
2018-04-28T13:29:23.705Z,25.23
2018-04-28T13:31:52.073Z,25.35
2018-04-28T13:34:20.453Z,25.34
2018-04-28T13:36:48.860Z,25.42
2018-04-28T13:39:17.330Z,25.36
2018-04-28T13:41:45.913Z,25.44
2018-04-28T13:44:14.290Z,25.44
2018-04-28T13:46:42.666Z,25.59
2018-04-28T13:49:11.045Z,25.68
2018-04-28T13:51:39.479Z,25.55
2018-04-28T13:54:07.866Z,25.49
2018-04-28T13:56:36.281Z,25.39
2018-04-28T13:59:04.854Z,25.33
2018-04-28T14:01:33.272Z,25.46
2018-04-28T14:04:01.663Z,25.41
2018-04-28T14:06:29.879Z,25.40
2018-04-28T14:08:58.049Z,25.38
2018-04-28T14:11:26.442Z,25.23
2018-04-28T14:13:54.809Z,25.22
2018-04-28T14:16:23.239Z,25.36
2018-04-28T14:18:51.667Z,25.44
2018-04-28T14:21:20.071Z,25.31
2018-04-28T14:23:48.221Z,25.18
2018-04-28T14:26:16.598Z,25.17
2018-04-28T14:28:45.036Z,25.30
2018-04-28T14:31:13.424Z,25.38
2018-04-28T14:33:41.802Z,25.39
2018-04-28T14:36:10.220Z,25.41
2018-04-28T14:38:38.642Z,25.41
2018-04-28T14:41:07.011Z,25.31
2018-04-28T14:43:35.923Z,25.37
2018-04-28T14:46:04.304Z,25.41
2018-04-28T14:48:32.882Z,25.25
2018-04-28T14:51:01.280Z,25.19
2018-04-28T14:53:29.669Z,25.16
2018-04-28T14:55:58.033Z,25.18
2018-04-28T14:58:26.410Z,25.14
2018-04-28T15:00:54.827Z,25.09
2018-04-28T15:03:23.373Z,25.13
2018-04-28T15:05:51.744Z,25.01
2018-04-28T15:08:20.124Z,24.94
2018-04-28T15:10:48.534Z,24.98
2018-04-28T15:13:16.963Z,25.01
2018-04-28T15:15:46.637Z,24.83
2018-04-28T15:18:15.015Z,24.77
2018-04-28T15:20:43.619Z,24.44
2018-04-28T15:23:11.994Z,24.22
2018-04-28T15:25:40.875Z,24.08
2018-04-28T15:28:09.288Z,24.06
2018-04-28T15:30:37.665Z,23.87
2018-04-28T15:33:06.033Z,23.68
2018-04-28T15:35:34.476Z,23.63
2018-04-28T15:38:02.615Z,23.51
2018-04-28T15:40:31.011Z,23.43
2018-04-28T15:42:59.485Z,23.34
2018-04-28T15:45:27.852Z,23.28
2018-04-28T15:47:56.276Z,23.13
2018-04-28T15:50:24.726Z,23.09
2018-04-28T15:52:53.174Z,23.04
2018-04-28T15:55:21.628Z,22.96
2018-04-28T15:57:54.478Z,22.91
2018-04-28T16:00:22.902Z,22.85
2018-04-28T16:02:51.327Z,22.81
2018-04-28T16:05:20.734Z,22.79
2018-04-28T16:07:49.111Z,22.74
2018-04-28T16:10:17.491Z,22.63
2018-04-28T16:12:45.866Z,22.63
2018-04-28T16:15:14.263Z,22.65
2018-04-28T16:17:46.876Z,22.61
2018-04-28T16:20:15.252Z,22.54
2018-04-28T16:22:43.392Z,22.52
2018-04-28T16:25:11.778Z,22.53
2018-04-28T16:27:40.145Z,22.56
2018-04-28T16:30:08.581Z,22.50
2018-04-28T16:32:36.958Z,22.44
2018-04-28T16:35:05.376Z,22.41
2018-04-28T16:37:36.067Z,22.27
2018-04-28T16:40:04.457Z,22.21
2018-04-28T16:42:32.862Z,22.15
2018-04-28T16:45:01.246Z,22.07
2018-04-28T16:47:29.684Z,21.98
2018-04-28T16:49:58.167Z,21.92
2018-04-28T16:52:26.560Z,21.85
2018-04-28T16:54:55.009Z,21.80
2018-04-28T16:57:23.398Z,21.73
2018-04-28T16:59:51.837Z,21.61
2018-04-28T17:02:20.224Z,21.56
2018-04-28T17:04:48.644Z,21.53
2018-04-28T17:07:17.026Z,21.46
2018-04-28T17:09:45.420Z,21.43
2018-04-28T17:12:14.333Z,21.36
2018-04-28T17:14:43.431Z,21.32
2018-04-28T17:17:11.900Z,21.25
2018-04-28T17:19:40.405Z,21.18
2018-04-28T17:22:10.229Z,21.15
2018-04-28T17:24:42.243Z,21.10
2018-04-28T17:27:10.999Z,21.01
2018-04-28T17:29:39.410Z,20.95
2018-04-28T17:32:08.626Z,20.92
2018-04-28T17:34:37.021Z,20.93
2018-04-28T17:37:05.486Z,20.89
2018-04-28T17:39:34.038Z,20.82
2018-04-28T17:42:02.484Z,20.74
2018-04-28T17:44:30.865Z,20.76
2018-04-28T17:46:59.420Z,20.74
2018-04-28T17:49:27.824Z,20.70
2018-04-28T17:51:56.259Z,20.69
2018-04-28T17:54:24.749Z,20.65
2018-04-28T17:56:53.122Z,20.61
2018-04-28T17:59:21.690Z,20.54
2018-04-28T18:01:50.232Z,20.48
2018-04-28T18:04:19.550Z,20.47
2018-04-28T18:06:47.931Z,20.39
2018-04-28T18:09:16.931Z,20.37
2018-04-28T18:11:45.358Z,20.35
2018-04-28T18:14:13.734Z,20.27
2018-04-28T18:16:42.123Z,20.26
2018-04-28T18:19:10.503Z,20.25
2018-04-28T18:21:38.881Z,20.11
2018-04-28T18:24:10.289Z,20.10
2018-04-28T18:26:39.751Z,20.03
2018-04-28T18:29:08.137Z,19.99
2018-04-28T18:31:36.523Z,20.00
2018-04-28T18:34:04.670Z,19.91
2018-04-28T18:36:33.076Z,19.85
2018-04-28T18:39:01.457Z,19.91
2018-04-28T18:41:29.844Z,19.87
2018-04-28T18:43:59.071Z,19.89
2018-04-28T18:46:27.543Z,19.84
2018-04-28T18:48:56.038Z,19.85
2018-04-28T18:51:24.462Z,19.82
2018-04-28T18:53:52.835Z,19.82
2018-04-28T18:56:21.249Z,19.80
2018-04-28T18:58:49.619Z,19.83
2018-04-28T19:01:17.998Z,19.79
2018-04-28T19:03:46.383Z,19.79
2018-04-28T19:06:14.788Z,19.82
2018-04-28T19:08:42.985Z,19.82
2018-04-28T19:11:11.140Z,19.81
2018-04-28T19:13:39.589Z,19.81
2018-04-28T19:16:07.971Z,19.78
2018-04-28T19:18:36.353Z,19.75
2018-04-28T19:21:04.723Z,19.74
2018-04-28T19:23:33.104Z,19.75
2018-04-28T19:26:01.504Z,19.76
2018-04-28T19:28:40.322Z,19.82
2018-04-28T19:31:09.206Z,19.81
2018-04-28T19:33:37.799Z,19.76
2018-04-28T19:36:06.248Z,19.76
2018-04-28T19:38:34.635Z,19.70
2018-04-28T19:41:02.778Z,19.66
2018-04-28T19:43:31.207Z,19.63
2018-04-28T19:45:59.611Z,19.59
2018-04-28T19:48:28.001Z,19.56
2018-04-28T19:50:56.158Z,19.53
2018-04-28T19:53:24.542Z,19.52
2018-04-28T19:55:52.709Z,19.50
2018-04-28T19:58:21.140Z,19.52
2018-04-28T20:00:49.517Z,19.46
2018-04-28T20:03:17.924Z,19.42
2018-04-28T20:05:46.330Z,19.43
2018-04-28T20:08:14.732Z,19.32
2018-04-28T20:10:43.107Z,19.25
2018-04-28T20:13:11.503Z,19.21
2018-04-28T20:15:39.899Z,19.16
2018-04-28T20:18:08.283Z,19.09
2018-04-28T20:20:36.659Z,19.08
2018-04-28T20:23:16.243Z,19.04
2018-04-28T20:25:44.616Z,19.01
2018-04-28T20:28:13.025Z,18.93
2018-04-28T20:30:41.663Z,18.91
2018-04-28T20:33:10.132Z,18.90
2018-04-28T20:35:38.615Z,18.83
2018-04-28T20:38:07.020Z,18.81
2018-04-28T20:40:35.493Z,18.76
2018-04-28T20:43:03.869Z,18.76
2018-04-28T20:45:32.306Z,18.77
2018-04-28T20:48:00.694Z,18.81
2018-04-28T20:50:29.089Z,18.75
2018-04-28T20:52:57.529Z,18.72
2018-04-28T20:55:25.915Z,18.62
2018-04-28T20:57:54.302Z,18.55
2018-04-28T21:00:22.720Z,18.51
2018-04-28T21:02:51.098Z,18.50
2018-04-28T21:05:19.529Z,18.51
2018-04-28T21:07:47.965Z,18.55
2018-04-28T21:10:17.293Z,18.54
2018-04-28T21:12:45.674Z,18.53
2018-04-28T21:15:14.091Z,18.52
2018-04-28T21:17:42.662Z,18.46
2018-04-28T21:20:11.061Z,18.47
2018-04-28T21:22:39.437Z,18.45
2018-04-28T21:25:07.805Z,18.42
2018-04-28T21:27:36.182Z,18.39
2018-04-28T21:30:05.805Z,18.40
2018-04-28T21:32:34.532Z,18.33
2018-04-28T21:35:02.909Z,18.26
2018-04-28T21:37:31.350Z,18.20
2018-04-28T21:39:59.728Z,18.17
2018-04-28T21:42:28.095Z,18.12
2018-04-28T21:44:56.481Z,18.04
2018-04-28T21:47:24.894Z,18.07
2018-04-28T21:49:53.275Z,18.01
2018-04-28T21:52:22.431Z,17.99
2018-04-28T21:54:50.853Z,17.95
2018-04-28T21:57:19.235Z,17.92
2018-04-28T21:59:47.620Z,17.83
2018-04-28T22:02:15.990Z,17.82
2018-04-28T22:04:44.424Z,17.75
2018-04-28T22:07:13.077Z,17.70
2018-04-28T22:09:41.839Z,17.69
2018-04-28T22:12:10.256Z,17.70
2018-04-28T22:14:38.631Z,17.63
2018-04-28T22:17:07.016Z,17.57
2018-04-28T22:19:35.386Z,17.51
2018-04-28T22:22:03.795Z,17.53
2018-04-28T22:24:32.168Z,17.54
2018-04-28T22:27:00.551Z,17.53
2018-04-28T22:29:28.925Z,17.52
2018-04-28T22:31:57.298Z,17.54
2018-04-28T22:34:25.716Z,17.57
2018-04-28T22:36:53.935Z,17.58
2018-04-28T22:39:22.311Z,17.58
2018-04-28T22:41:50.688Z,17.53
2018-04-28T22:44:19.075Z,17.50
2018-04-28T22:46:47.434Z,17.47
2018-04-28T22:49:15.991Z,17.46
2018-04-28T22:51:44.354Z,17.46
2018-04-28T22:54:12.784Z,17.46
2018-04-28T22:56:41.198Z,17.40
2018-04-28T22:59:09.600Z,17.36
2018-04-28T23:01:37.975Z,17.36
2018-04-28T23:04:06.346Z,17.41
2018-04-28T23:06:34.718Z,17.41
2018-04-28T23:09:03.151Z,17.42
2018-04-28T23:11:31.336Z,17.44
2018-04-28T23:13:59.750Z,17.46
2018-04-28T23:16:28.158Z,17.45
2018-04-28T23:18:56.531Z,17.45
2018-04-28T23:21:25.110Z,17.48
2018-04-28T23:23:53.250Z,17.46
2018-04-28T23:26:21.618Z,17.45
2018-04-28T23:28:49.986Z,17.43
2018-04-28T23:31:18.357Z,17.44
2018-04-28T23:33:46.783Z,17.42
2018-04-28T23:36:15.202Z,17.40
2018-04-28T23:38:43.576Z,17.38
2018-04-28T23:41:11.949Z,17.40
2018-04-28T23:43:40.319Z,17.45
2018-04-28T23:46:08.731Z,17.42
2018-04-28T23:48:37.110Z,17.38
2018-04-28T23:51:05.527Z,17.41
2018-04-28T23:53:33.908Z,17.34
2018-04-28T23:56:02.320Z,17.34
2018-04-28T23:58:30.749Z,17.34
